Terminal Aerodrome Forecast
Issued by NWS Atlanta, GA

Home | Current Version | Previous Version | Text Only | Print | Product List | Glossary On
Versions: 1 2 3 4 5 6 7 8 9 10 11 12 13 14 15 16 17 18 19 20 21 22
000
FTUS42 KFFC 231133
TAFCSG
TAF
KCSG 231133Z 2312/2412 09005KT P6SM BKN012
      TEMPO 2312/2314 5SM BR BKN007
     FM231500 08006KT P6SM BKN025
     FM231800 10006KT P6SM SCT040
     FM240000 11003KT P6SM FEW050
     FM240400 11003KT P6SM BKN030=

USA.gov is the U.S. government's official web portal to all federal, state and local government web resources and services.